sensor_id;sensor_type;location;lat;lon;timestamp;P1;durP1;ratioP1;P2;durP2;ratioP2
51828;SDS011;37881;48.024;8.774;2023-11-18T00:01:59;89.00;;;8.43;;
51828;SDS011;37881;48.024;8.774;2023-11-18T00:04:26;84.22;;;8.50;;
51828;SDS011;37881;48.024;8.774;2023-11-18T00:06:53;95.88;;;8.27;;
51828;SDS011;37881;48.024;8.774;2023-11-18T00:09:21;115.82;;;8.30;;
51828;SDS011;37881;48.024;8.774;2023-11-18T00:11:49;134.87;;;7.00;;
51828;SDS011;37881;48.024;8.774;2023-11-18T00:14:15;42.35;;;5.90;;
51828;SDS011;37881;48.024;8.774;2023-11-18T00:16:44;88.15;;;6.93;;
51828;SDS011;37881;48.024;8.774;2023-11-18T00:19:11;42.05;;;5.22;;
51828;SDS011;37881;48.024;8.774;2023-11-18T00:21:38;59.13;;;6.07;;
51828;SDS011;37881;48.024;8.774;2023-11-18T00:24:04;120.13;;;6.17;;
51828;SDS011;37881;48.024;8.774;2023-11-18T00:26:32;219.30;;;8.80;;
51828;SDS011;37881;48.024;8.774;2023-11-18T00:28:58;112.53;;;13.88;;
51828;SDS011;37881;48.024;8.774;2023-11-18T00:31:27;64.18;;;6.50;;
51828;SDS011;37881;48.024;8.774;2023-11-18T00:33:54;22.30;;;5.05;;
51828;SDS011;37881;48.024;8.774;2023-11-18T00:36:21;27.33;;;4.43;;
51828;SDS011;37881;48.024;8.774;2023-11-18T00:38:47;74.60;;;5.63;;
51828;SDS011;37881;48.024;8.774;2023-11-18T00:41:15;39.15;;;5.25;;
51828;SDS011;37881;48.024;8.774;2023-11-18T00:43:44;45.60;;;5.85;;
51828;SDS011;37881;48.024;8.774;2023-11-18T00:46:10;25.65;;;4.57;;
51828;SDS011;37881;48.024;8.774;2023-11-18T00:48:37;45.73;;;4.77;;
51828;SDS011;37881;48.024;8.774;2023-11-18T00:51:05;16.92;;;4.35;;
51828;SDS011;37881;48.024;8.774;2023-11-18T00:53:32;18.83;;;3.92;;
51828;SDS011;37881;48.024;8.774;2023-11-18T00:55:59;48.15;;;4.65;;
51828;SDS011;37881;48.024;8.774;2023-11-18T00:58:27;23.17;;;6.60;;
51828;SDS011;37881;48.024;8.774;2023-11-18T01:00:55;36.17;;;7.10;;
51828;SDS011;37881;48.024;8.774;2023-11-18T01:03:22;16.05;;;3.83;;
51828;SDS011;37881;48.024;8.774;2023-11-18T01:05:49;44.83;;;4.10;;
51828;SDS011;37881;48.024;8.774;2023-11-18T01:08:16;75.45;;;4.18;;
51828;SDS011;37881;48.024;8.774;2023-11-18T01:10:43;61.00;;;5.07;;
51828;SDS011;37881;48.024;8.774;2023-11-18T01:13:10;16.77;;;3.40;;
51828;SDS011;37881;48.024;8.774;2023-11-18T01:15:37;34.85;;;3.70;;
51828;SDS011;37881;48.024;8.774;2023-11-18T01:18:04;24.05;;;3.08;;
51828;SDS011;37881;48.024;8.774;2023-11-18T01:20:32;58.13;;;4.07;;
51828;SDS011;37881;48.024;8.774;2023-11-18T01:22:59;55.45;;;4.43;;
51828;SDS011;37881;48.024;8.774;2023-11-18T01:25:26;35.90;;;4.03;;
51828;SDS011;37881;48.024;8.774;2023-11-18T01:27:53;50.92;;;4.47;;
51828;SDS011;37881;48.024;8.774;2023-11-18T01:30:20;48.75;;;4.85;;
51828;SDS011;37881;48.024;8.774;2023-11-18T01:32:47;112.72;;;7.60;;
51828;SDS011;37881;48.024;8.774;2023-11-18T01:35:14;67.50;;;5.18;;
51828;SDS011;37881;48.024;8.774;2023-11-18T01:37:40;64.23;;;4.63;;
51828;SDS011;37881;48.024;8.774;2023-11-18T01:40:07;41.05;;;4.07;;
51828;SDS011;37881;48.024;8.774;2023-11-18T01:42:34;25.35;;;3.67;;
51828;SDS011;37881;48.024;8.774;2023-11-18T01:45:01;57.25;;;4.13;;
51828;SDS011;37881;48.024;8.774;2023-11-18T01:47:33;30.63;;;4.18;;
51828;SDS011;37881;48.024;8.774;2023-11-18T01:50:00;36.40;;;4.43;;
51828;SDS011;37881;48.024;8.774;2023-11-18T01:52:28;54.35;;;4.57;;
51828;SDS011;37881;48.024;8.774;2023-11-18T01:54:57;44.47;;;4.30;;
51828;SDS011;37881;48.024;8.774;2023-11-18T01:57:25;18.80;;;3.65;;
51828;SDS011;37881;48.024;8.774;2023-11-18T01:59:53;13.48;;;3.42;;
51828;SDS011;37881;48.024;8.774;2023-11-18T02:02:20;11.77;;;3.07;;
51828;SDS011;37881;48.024;8.774;2023-11-18T02:04:48;8.65;;;2.92;;
51828;SDS011;37881;48.024;8.774;2023-11-18T02:07:15;10.68;;;3.05;;
51828;SDS011;37881;48.024;8.774;2023-11-18T02:09:42;20.15;;;3.00;;
51828;SDS011;37881;48.024;8.774;2023-11-18T02:14:53;18.00;;;2.80;;
51828;SDS011;37881;48.024;8.774;2023-11-18T02:17:24;14.20;;;3.10;;
51828;SDS011;37881;48.024;8.774;2023-11-18T02:19:52;15.80;;;3.60;;
51828;SDS011;37881;48.024;8.774;2023-11-18T02:22:20;13.93;;;2.78;;
51828;SDS011;37881;48.024;8.774;2023-11-18T02:24:48;18.75;;;3.47;;
51828;SDS011;37881;48.024;8.774;2023-11-18T02:27:15;38.27;;;3.47;;
51828;SDS011;37881;48.024;8.774;2023-11-18T02:29:43;41.38;;;3.35;;
51828;SDS011;37881;48.024;8.774;2023-11-18T02:32:18;13.82;;;3.13;;
51828;SDS011;37881;48.024;8.774;2023-11-18T02:35:00;25.08;;;3.22;;
51828;SDS011;37881;48.024;8.774;2023-11-18T02:37:40;28.25;;;3.33;;
51828;SDS011;37881;48.024;8.774;2023-11-18T02:40:12;43.83;;;3.17;;
51828;SDS011;37881;48.024;8.774;2023-11-18T02:42:45;39.63;;;3.35;;
51828;SDS011;37881;48.024;8.774;2023-11-18T02:45:14;39.50;;;3.92;;
51828;SDS011;37881;48.024;8.774;2023-11-18T02:47:44;35.92;;;3.80;;
51828;SDS011;37881;48.024;8.774;2023-11-18T02:50:11;31.55;;;3.67;;
51828;SDS011;37881;48.024;8.774;2023-11-18T02:52:40;58.03;;;3.97;;
51828;SDS011;37881;48.024;8.774;2023-11-18T02:55:07;73.88;;;3.70;;
51828;SDS011;37881;48.024;8.774;2023-11-18T02:57:35;37.38;;;3.83;;
51828;SDS011;37881;48.024;8.774;2023-11-18T03:00:07;60.88;;;3.08;;
51828;SDS011;37881;48.024;8.774;2023-11-18T03:02:44;33.95;;;3.17;;
51828;SDS011;37881;48.024;8.774;2023-11-18T03:05:14;32.37;;;2.70;;
51828;SDS011;37881;48.024;8.774;2023-11-18T03:07:41;40.67;;;2.88;;
51828;SDS011;37881;48.024;8.774;2023-11-18T03:10:11;17.48;;;2.75;;
51828;SDS011;37881;48.024;8.774;2023-11-18T03:12:38;47.85;;;2.88;;
51828;SDS011;37881;48.024;8.774;2023-11-18T03:15:05;66.20;;;4.70;;
51828;SDS011;37881;48.024;8.774;2023-11-18T03:17:35;39.63;;;2.90;;
51828;SDS011;37881;48.024;8.774;2023-11-18T03:20:02;67.75;;;3.67;;
51828;SDS011;37881;48.024;8.774;2023-11-18T03:22:29;44.13;;;3.97;;
51828;SDS011;37881;48.024;8.774;2023-11-18T03:24:56;45.15;;;3.60;;
51828;SDS011;37881;48.024;8.774;2023-11-18T03:27:22;143.50;;;5.88;;
51828;SDS011;37881;48.024;8.774;2023-11-18T03:29:49;48.20;;;3.60;;
51828;SDS011;37881;48.024;8.774;2023-11-18T03:32:19;107.95;;;5.10;;
51828;SDS011;37881;48.024;8.774;2023-11-18T03:34:45;55.95;;;5.35;;
51828;SDS011;37881;48.024;8.774;2023-11-18T03:37:12;55.17;;;4.20;;
51828;SDS011;37881;48.024;8.774;2023-11-18T03:39:39;45.00;;;3.65;;
51828;SDS011;37881;48.024;8.774;2023-11-18T03:42:06;38.33;;;3.80;;
51828;SDS011;37881;48.024;8.774;2023-11-18T03:44:32;60.67;;;4.10;;
51828;SDS011;37881;48.024;8.774;2023-11-18T03:46:59;57.22;;;3.17;;
51828;SDS011;37881;48.024;8.774;2023-11-18T03:49:29;48.28;;;2.90;;
51828;SDS011;37881;48.024;8.774;2023-11-18T03:51:56;62.53;;;3.45;;
51828;SDS011;37881;48.024;8.774;2023-11-18T03:54:22;68.50;;;3.27;;
51828;SDS011;37881;48.024;8.774;2023-11-18T03:56:49;29.77;;;2.80;;
51828;SDS011;37881;48.024;8.774;2023-11-18T03:59:16;43.58;;;2.90;;
51828;SDS011;37881;48.024;8.774;2023-11-18T04:01:43;24.77;;;2.72;;
51828;SDS011;37881;48.024;8.774;2023-11-18T04:04:09;21.80;;;2.70;;
51828;SDS011;37881;48.024;8.774;2023-11-18T04:06:36;32.37;;;1.87;;
51828;SDS011;37881;48.024;8.774;2023-11-18T04:09:03;28.38;;;2.15;;
51828;SDS011;37881;48.024;8.774;2023-11-18T04:11:32;62.85;;;3.88;;
51828;SDS011;37881;48.024;8.774;2023-11-18T04:13:59;26.90;;;2.90;;
51828;SDS011;37881;48.024;8.774;2023-11-18T04:16:25;21.40;;;3.30;;
51828;SDS011;37881;48.024;8.774;2023-11-18T04:18:52;30.17;;;2.47;;
51828;SDS011;37881;48.024;8.774;2023-11-18T04:26:39;61.38;;;3.78;;
51828;SDS011;37881;48.024;8.774;2023-11-18T04:29:06;45.50;;;3.33;;
51828;SDS011;37881;48.024;8.774;2023-11-18T04:31:33;131.20;;;4.97;;
51828;SDS011;37881;48.024;8.774;2023-11-18T04:34:00;46.28;;;3.30;;
51828;SDS011;37881;48.024;8.774;2023-11-18T04:36:27;64.78;;;4.03;;
51828;SDS011;37881;48.024;8.774;2023-11-18T04:38:55;76.90;;;4.10;;
51828;SDS011;37881;48.024;8.774;2023-11-18T04:41:22;40.78;;;3.42;;
51828;SDS011;37881;48.024;8.774;2023-11-18T04:43:49;59.60;;;4.13;;
51828;SDS011;37881;48.024;8.774;2023-11-18T04:46:16;148.98;;;6.35;;
51828;SDS011;37881;48.024;8.774;2023-11-18T04:48:43;83.35;;;4.72;;
51828;SDS011;37881;48.024;8.774;2023-11-18T04:51:10;27.67;;;3.80;;
51828;SDS011;37881;48.024;8.774;2023-11-18T04:53:38;17.77;;;3.47;;
51828;SDS011;37881;48.024;8.774;2023-11-18T04:56:06;77.23;;;4.87;;
51828;SDS011;37881;48.024;8.774;2023-11-18T04:58:40;58.20;;;3.97;;
51828;SDS011;37881;48.024;8.774;2023-11-18T05:01:07;48.70;;;3.60;;
51828;SDS011;37881;48.024;8.774;2023-11-18T05:03:35;60.50;;;4.20;;
51828;SDS011;37881;48.024;8.774;2023-11-18T05:06:03;45.55;;;3.90;;
51828;SDS011;37881;48.024;8.774;2023-11-18T05:08:31;25.63;;;3.27;;
51828;SDS011;37881;48.024;8.774;2023-11-18T05:11:00;95.30;;;4.72;;
51828;SDS011;37881;48.024;8.774;2023-11-18T05:13:27;43.17;;;4.05;;
51828;SDS011;37881;48.024;8.774;2023-11-18T05:15:53;78.25;;;18.38;;
51828;SDS011;37881;48.024;8.774;2023-11-18T05:18:20;53.78;;;6.65;;
51828;SDS011;37881;48.024;8.774;2023-11-18T05:20:47;48.50;;;5.90;;
51828;SDS011;37881;48.024;8.774;2023-11-18T05:23:14;102.10;;;6.18;;
51828;SDS011;37881;48.024;8.774;2023-11-18T05:25:42;169.90;;;8.85;;
51828;SDS011;37881;48.024;8.774;2023-11-18T05:28:12;44.95;;;4.65;;
51828;SDS011;37881;48.024;8.774;2023-11-18T05:30:41;38.38;;;4.88;;
51828;SDS011;37881;48.024;8.774;2023-11-18T05:33:09;41.63;;;3.20;;
51828;SDS011;37881;48.024;8.774;2023-11-18T05:35:41;28.00;;;3.50;;
51828;SDS011;37881;48.024;8.774;2023-11-18T05:38:18;37.40;;;3.58;;
51828;SDS011;37881;48.024;8.774;2023-11-18T05:40:48;33.50;;;3.60;;
51828;SDS011;37881;48.024;8.774;2023-11-18T05:43:26;44.50;;;4.05;;
51828;SDS011;37881;48.024;8.774;2023-11-18T05:45:56;15.97;;;4.30;;
51828;SDS011;37881;48.024;8.774;2023-11-18T05:48:47;29.50;;;3.50;;
51828;SDS011;37881;48.024;8.774;2023-11-18T05:51:19;47.20;;;3.28;;
51828;SDS011;37881;48.024;8.774;2023-11-18T05:53:55;68.88;;;3.80;;
51828;SDS011;37881;48.024;8.774;2023-11-18T05:56:22;63.88;;;4.40;;
51828;SDS011;37881;48.024;8.774;2023-11-18T05:58:50;107.70;;;5.10;;
51828;SDS011;37881;48.024;8.774;2023-11-18T06:01:20;100.28;;;5.53;;
51828;SDS011;37881;48.024;8.774;2023-11-18T06:03:47;38.65;;;4.40;;
51828;SDS011;37881;48.024;8.774;2023-11-18T06:06:15;19.02;;;3.63;;
51828;SDS011;37881;48.024;8.774;2023-11-18T06:08:49;71.40;;;5.03;;
51828;SDS011;37881;48.024;8.774;2023-11-18T06:11:16;34.90;;;4.10;;
51828;SDS011;37881;48.024;8.774;2023-11-18T06:13:50;14.88;;;3.70;;
51828;SDS011;37881;48.024;8.774;2023-11-18T06:16:19;17.48;;;3.95;;
51828;SDS011;37881;48.024;8.774;2023-11-18T06:18:48;39.70;;;4.80;;
51828;SDS011;37881;48.024;8.774;2023-11-18T06:21:17;26.40;;;4.90;;
51828;SDS011;37881;48.024;8.774;2023-11-18T06:23:45;90.27;;;5.57;;
51828;SDS011;37881;48.024;8.774;2023-11-18T06:26:14;49.17;;;3.90;;
51828;SDS011;37881;48.024;8.774;2023-11-18T06:28:45;83.53;;;4.95;;
51828;SDS011;37881;48.024;8.774;2023-11-18T06:31:15;49.72;;;4.55;;
51828;SDS011;37881;48.024;8.774;2023-11-18T06:33:42;113.07;;;4.70;;
51828;SDS011;37881;48.024;8.774;2023-11-18T06:38:41;58.45;;;4.55;;
51828;SDS011;37881;48.024;8.774;2023-11-18T06:41:07;75.10;;;5.45;;
51828;SDS011;37881;48.024;8.774;2023-11-18T06:43:37;84.40;;;5.15;;
51828;SDS011;37881;48.024;8.774;2023-11-18T06:46:30;49.83;;;4.82;;
51828;SDS011;37881;48.024;8.774;2023-11-18T06:49:01;35.20;;;4.73;;
51828;SDS011;37881;48.024;8.774;2023-11-18T06:51:34;48.42;;;5.60;;
51828;SDS011;37881;48.024;8.774;2023-11-18T06:54:06;39.10;;;5.25;;
51828;SDS011;37881;48.024;8.774;2023-11-18T06:56:38;82.45;;;6.57;;
51828;SDS011;37881;48.024;8.774;2023-11-18T06:59:12;119.15;;;7.15;;
51828;SDS011;37881;48.024;8.774;2023-11-18T07:01:42;67.73;;;5.60;;
51828;SDS011;37881;48.024;8.774;2023-11-18T07:04:12;133.57;;;7.50;;
51828;SDS011;37881;48.024;8.774;2023-11-18T07:06:41;38.95;;;5.30;;
51828;SDS011;37881;48.024;8.774;2023-11-18T07:09:09;110.05;;;6.32;;
51828;SDS011;37881;48.024;8.774;2023-11-18T07:11:40;23.58;;;5.47;;
51828;SDS011;37881;48.024;8.774;2023-11-18T07:14:08;29.53;;;5.43;;
51828;SDS011;37881;48.024;8.774;2023-11-18T07:16:36;97.13;;;6.28;;
51828;SDS011;37881;48.024;8.774;2023-11-18T07:19:05;61.72;;;7.13;;
51828;SDS011;37881;48.024;8.774;2023-11-18T07:21:33;103.32;;;6.35;;
51828;SDS011;37881;48.024;8.774;2023-11-18T07:24:00;87.35;;;5.90;;
51828;SDS011;37881;48.024;8.774;2023-11-18T07:26:28;31.47;;;6.10;;
51828;SDS011;37881;48.024;8.774;2023-11-18T07:28:55;56.28;;;6.00;;
51828;SDS011;37881;48.024;8.774;2023-11-18T07:31:22;49.38;;;8.13;;
51828;SDS011;37881;48.024;8.774;2023-11-18T07:33:49;43.35;;;8.93;;
51828;SDS011;37881;48.024;8.774;2023-11-18T07:36:17;14.15;;;6.88;;
51828;SDS011;37881;48.024;8.774;2023-11-18T07:38:46;16.90;;;6.57;;
51828;SDS011;37881;48.024;8.774;2023-11-18T07:41:13;27.60;;;8.35;;
51828;SDS011;37881;48.024;8.774;2023-11-18T07:43:58;13.48;;;6.13;;
51828;SDS011;37881;48.024;8.774;2023-11-18T07:46:25;59.42;;;9.90;;
51828;SDS011;37881;48.024;8.774;2023-11-18T07:48:52;31.80;;;8.38;;
51828;SDS011;37881;48.024;8.774;2023-11-18T07:51:20;35.63;;;8.63;;
51828;SDS011;37881;48.024;8.774;2023-11-18T07:53:51;26.83;;;9.88;;
51828;SDS011;37881;48.024;8.774;2023-11-18T07:56:17;14.85;;;5.65;;
51828;SDS011;37881;48.024;8.774;2023-11-18T07:58:44;12.70;;;5.13;;
51828;SDS011;37881;48.024;8.774;2023-11-18T08:01:14;18.13;;;5.60;;
51828;SDS011;37881;48.024;8.774;2023-11-18T08:03:43;17.50;;;5.87;;
51828;SDS011;37881;48.024;8.774;2023-11-18T08:06:11;20.63;;;6.20;;
51828;SDS011;37881;48.024;8.774;2023-11-18T08:08:39;16.23;;;6.57;;
51828;SDS011;37881;48.024;8.774;2023-11-18T08:11:06;22.13;;;7.97;;
51828;SDS011;37881;48.024;8.774;2023-11-18T08:13:33;29.27;;;10.13;;
51828;SDS011;37881;48.024;8.774;2023-11-18T08:16:00;14.50;;;7.07;;
51828;SDS011;37881;48.024;8.774;2023-11-18T08:18:27;18.00;;;6.93;;
51828;SDS011;37881;48.024;8.774;2023-11-18T08:20:55;14.25;;;7.38;;
51828;SDS011;37881;48.024;8.774;2023-11-18T08:23:23;14.30;;;6.18;;
51828;SDS011;37881;48.024;8.774;2023-11-18T08:25:51;15.05;;;6.55;;
51828;SDS011;37881;48.024;8.774;2023-11-18T08:28:18;12.70;;;5.77;;
51828;SDS011;37881;48.024;8.774;2023-11-18T08:30:44;12.65;;;5.57;;
51828;SDS011;37881;48.024;8.774;2023-11-18T08:33:15;12.27;;;5.53;;
51828;SDS011;37881;48.024;8.774;2023-11-18T08:35:41;14.40;;;6.18;;
51828;SDS011;37881;48.024;8.774;2023-11-18T08:38:08;16.05;;;6.93;;
51828;SDS011;37881;48.024;8.774;2023-11-18T08:40:39;13.80;;;5.97;;
51828;SDS011;37881;48.024;8.774;2023-11-18T08:43:07;13.40;;;6.10;;
51828;SDS011;37881;48.024;8.774;2023-11-18T08:45:34;12.65;;;5.40;;
51828;SDS011;37881;48.024;8.774;2023-11-18T08:48:03;12.80;;;6.15;;
51828;SDS011;37881;48.024;8.774;2023-11-18T08:50:35;13.05;;;5.97;;
51828;SDS011;37881;48.024;8.774;2023-11-18T08:53:02;12.93;;;5.50;;
51828;SDS011;37881;48.024;8.774;2023-11-18T08:55:36;12.07;;;6.03;;
51828;SDS011;37881;48.024;8.774;2023-11-18T08:58:09;15.88;;;7.78;;
51828;SDS011;37881;48.024;8.774;2023-11-18T09:00:52;15.43;;;6.30;;
51828;SDS011;37881;48.024;8.774;2023-11-18T09:03:22;13.57;;;6.30;;
51828;SDS011;37881;48.024;8.774;2023-11-18T09:06:02;13.73;;;6.17;;
51828;SDS011;37881;48.024;8.774;2023-11-18T09:08:35;12.73;;;5.80;;
51828;SDS011;37881;48.024;8.774;2023-11-18T09:11:05;13.60;;;6.07;;
51828;SDS011;37881;48.024;8.774;2023-11-18T09:13:33;11.55;;;5.15;;
51828;SDS011;37881;48.024;8.774;2023-11-18T09:16:02;11.18;;;5.25;;
51828;SDS011;37881;48.024;8.774;2023-11-18T09:18:38;12.37;;;5.93;;
51828;SDS011;37881;48.024;8.774;2023-11-18T09:21:09;11.85;;;5.50;;
51828;SDS011;37881;48.024;8.774;2023-11-18T09:23:42;12.25;;;5.75;;
51828;SDS011;37881;48.024;8.774;2023-11-18T09:26:10;12.80;;;5.90;;
51828;SDS011;37881;48.024;8.774;2023-11-18T09:28:37;11.98;;;5.75;;
51828;SDS011;37881;48.024;8.774;2023-11-18T09:31:05;13.03;;;6.00;;
51828;SDS011;37881;48.024;8.774;2023-11-18T09:33:36;12.82;;;5.78;;
51828;SDS011;37881;48.024;8.774;2023-11-18T09:36:06;15.38;;;7.47;;
51828;SDS011;37881;48.024;8.774;2023-11-18T09:38:34;17.05;;;7.35;;
51828;SDS011;37881;48.024;8.774;2023-11-18T09:41:05;12.52;;;5.82;;
51828;SDS011;37881;48.024;8.774;2023-11-18T09:43:34;10.07;;;4.80;;
51828;SDS011;37881;48.024;8.774;2023-11-18T09:46:17;12.07;;;4.80;;
51828;SDS011;37881;48.024;8.774;2023-11-18T09:48:59;10.70;;;5.47;;
51828;SDS011;37881;48.024;8.774;2023-11-18T09:51:43;9.85;;;4.93;;
51828;SDS011;37881;48.024;8.774;2023-11-18T09:54:22;10.25;;;5.13;;
51828;SDS011;37881;48.024;8.774;2023-11-18T10:00:00;9.82;;;5.00;;
51828;SDS011;37881;48.024;8.774;2023-11-18T10:02:48;11.85;;;6.00;;
51828;SDS011;37881;48.024;8.774;2023-11-18T10:05:19;12.65;;;6.13;;
51828;SDS011;37881;48.024;8.774;2023-11-18T10:07:49;13.07;;;5.72;;
51828;SDS011;37881;48.024;8.774;2023-11-18T10:10:17;14.67;;;6.40;;
51828;SDS011;37881;48.024;8.774;2023-11-18T10:12:47;11.48;;;5.53;;
51828;SDS011;37881;48.024;8.774;2023-11-18T10:15:25;12.60;;;6.03;;
51828;SDS011;37881;48.024;8.774;2023-11-18T10:17:53;13.15;;;6.30;;
51828;SDS011;37881;48.024;8.774;2023-11-18T10:23:06;12.73;;;6.23;;
51828;SDS011;37881;48.024;8.774;2023-11-18T10:25:47;14.27;;;6.82;;
51828;SDS011;37881;48.024;8.774;2023-11-18T10:28:36;15.07;;;6.97;;
51828;SDS011;37881;48.024;8.774;2023-11-18T10:31:05;15.00;;;8.10;;
51828;SDS011;37881;48.024;8.774;2023-11-18T10:33:36;15.10;;;6.90;;
51828;SDS011;37881;48.024;8.774;2023-11-18T10:36:05;12.67;;;5.63;;
51828;SDS011;37881;48.024;8.774;2023-11-18T10:38:39;13.02;;;6.20;;
51828;SDS011;37881;48.024;8.774;2023-11-18T10:41:16;15.80;;;7.65;;
51828;SDS011;37881;48.024;8.774;2023-11-18T10:43:46;15.02;;;6.85;;
51828;SDS011;37881;48.024;8.774;2023-11-18T10:46:15;15.45;;;7.38;;
51828;SDS011;37881;48.024;8.774;2023-11-18T10:48:43;13.17;;;6.60;;
51828;SDS011;37881;48.024;8.774;2023-11-18T10:51:18;13.80;;;6.50;;
51828;SDS011;37881;48.024;8.774;2023-11-18T10:53:47;12.65;;;6.40;;
51828;SDS011;37881;48.024;8.774;2023-11-18T10:56:25;13.35;;;5.72;;
51828;SDS011;37881;48.024;8.774;2023-11-18T10:58:57;14.15;;;6.25;;
51828;SDS011;37881;48.024;8.774;2023-11-18T11:01:37;16.47;;;6.83;;
51828;SDS011;37881;48.024;8.774;2023-11-18T11:04:10;13.32;;;6.43;;
51828;SDS011;37881;48.024;8.774;2023-11-18T11:06:42;15.85;;;7.38;;
51828;SDS011;37881;48.024;8.774;2023-11-18T11:09:12;14.07;;;7.20;;
51828;SDS011;37881;48.024;8.774;2023-11-18T11:12:17;13.13;;;6.93;;
51828;SDS011;37881;48.024;8.774;2023-11-18T11:14:54;15.13;;;7.10;;
51828;SDS011;37881;48.024;8.774;2023-11-18T11:17:30;12.88;;;6.05;;
51828;SDS011;37881;48.024;8.774;2023-11-18T11:20:06;13.73;;;6.60;;
51828;SDS011;37881;48.024;8.774;2023-11-18T11:22:51;14.45;;;7.30;;
51828;SDS011;37881;48.024;8.774;2023-11-18T11:25:24;11.93;;;6.00;;
51828;SDS011;37881;48.024;8.774;2023-11-18T11:28:22;12.77;;;5.70;;
51828;SDS011;37881;48.024;8.774;2023-11-18T11:35:49;24.73;;;10.18;;
51828;SDS011;37881;48.024;8.774;2023-11-18T11:38:24;12.98;;;6.50;;
51828;SDS011;37881;48.024;8.774;2023-11-18T11:40:53;15.77;;;8.03;;
51828;SDS011;37881;48.024;8.774;2023-11-18T11:43:21;13.43;;;6.70;;
51828;SDS011;37881;48.024;8.774;2023-11-18T11:45:49;12.77;;;6.35;;
51828;SDS011;37881;48.024;8.774;2023-11-18T11:48:18;11.90;;;6.00;;
51828;SDS011;37881;48.024;8.774;2023-11-18T11:51:08;11.15;;;6.35;;
51828;SDS011;37881;48.024;8.774;2023-11-18T11:53:55;12.53;;;5.60;;
51828;SDS011;37881;48.024;8.774;2023-11-18T11:56:37;10.85;;;5.80;;
51828;SDS011;37881;48.024;8.774;2023-11-18T11:59:06;11.25;;;5.97;;
51828;SDS011;37881;48.024;8.774;2023-11-18T12:01:37;10.35;;;5.88;;
51828;SDS011;37881;48.024;8.774;2023-11-18T12:04:08;11.38;;;6.00;;
51828;SDS011;37881;48.024;8.774;2023-11-18T12:06:41;9.63;;;4.27;;
51828;SDS011;37881;48.024;8.774;2023-11-18T12:09:09;10.15;;;6.03;;
51828;SDS011;37881;48.024;8.774;2023-11-18T12:11:36;11.00;;;5.82;;
51828;SDS011;37881;48.024;8.774;2023-11-18T12:14:08;9.32;;;5.07;;
51828;SDS011;37881;48.024;8.774;2023-11-18T12:17:05;9.60;;;4.80;;
51828;SDS011;37881;48.024;8.774;2023-11-18T12:19:37;9.73;;;5.30;;
51828;SDS011;37881;48.024;8.774;2023-11-18T12:22:18;10.38;;;5.50;;
51828;SDS011;37881;48.024;8.774;2023-11-18T12:41:35;9.48;;;4.53;;
51828;SDS011;37881;48.024;8.774;2023-11-18T12:44:21;10.40;;;5.00;;
51828;SDS011;37881;48.024;8.774;2023-11-18T12:47:04;12.40;;;6.00;;
51828;SDS011;37881;48.024;8.774;2023-11-18T12:49:41;11.18;;;5.43;;
51828;SDS011;37881;48.024;8.774;2023-11-18T12:52:09;13.45;;;6.80;;
51828;SDS011;37881;48.024;8.774;2023-11-18T12:54:38;10.25;;;5.57;;
51828;SDS011;37881;48.024;8.774;2023-11-18T12:57:10;10.57;;;5.72;;
51828;SDS011;37881;48.024;8.774;2023-11-18T12:59:41;10.10;;;5.03;;
51828;SDS011;37881;48.024;8.774;2023-11-18T13:02:09;9.50;;;5.00;;
51828;SDS011;37881;48.024;8.774;2023-11-18T13:04:48;12.40;;;6.75;;
51828;SDS011;37881;48.024;8.774;2023-11-18T13:07:16;12.95;;;6.90;;
51828;SDS011;37881;48.024;8.774;2023-11-18T13:09:45;10.85;;;5.32;;
51828;SDS011;37881;48.024;8.774;2023-11-18T13:12:13;14.30;;;8.20;;
51828;SDS011;37881;48.024;8.774;2023-11-18T13:14:46;11.70;;;5.93;;
51828;SDS011;37881;48.024;8.774;2023-11-18T13:17:15;13.77;;;8.23;;
51828;SDS011;37881;48.024;8.774;2023-11-18T13:19:43;10.40;;;5.85;;
51828;SDS011;37881;48.024;8.774;2023-11-18T13:22:11;9.75;;;5.20;;
51828;SDS011;37881;48.024;8.774;2023-11-18T13:24:40;11.77;;;5.70;;
51828;SDS011;37881;48.024;8.774;2023-11-18T13:27:15;9.48;;;4.80;;
51828;SDS011;37881;48.024;8.774;2023-11-18T13:29:43;9.77;;;5.40;;
51828;SDS011;37881;48.024;8.774;2023-11-18T13:32:20;11.88;;;5.63;;
51828;SDS011;37881;48.024;8.774;2023-11-18T13:34:53;10.15;;;5.57;;
51828;SDS011;37881;48.024;8.774;2023-11-18T13:37:21;12.23;;;6.43;;
51828;SDS011;37881;48.024;8.774;2023-11-18T13:39:53;12.10;;;6.82;;
51828;SDS011;37881;48.024;8.774;2023-11-18T13:42:21;12.10;;;6.32;;
51828;SDS011;37881;48.024;8.774;2023-11-18T13:45:05;11.60;;;5.50;;
51828;SDS011;37881;48.024;8.774;2023-11-18T13:47:35;11.80;;;6.65;;
51828;SDS011;37881;48.024;8.774;2023-11-18T13:50:09;12.30;;;6.50;;
51828;SDS011;37881;48.024;8.774;2023-11-18T13:52:37;13.98;;;6.45;;
51828;SDS011;37881;48.024;8.774;2023-11-18T13:55:06;12.20;;;6.57;;
51828;SDS011;37881;48.024;8.774;2023-11-18T13:57:33;13.43;;;5.68;;
51828;SDS011;37881;48.024;8.774;2023-11-18T14:00:01;11.30;;;5.93;;
51828;SDS011;37881;48.024;8.774;2023-11-18T14:02:33;11.57;;;5.90;;
51828;SDS011;37881;48.024;8.774;2023-11-18T14:05:03;15.30;;;6.90;;
51828;SDS011;37881;48.024;8.774;2023-11-18T14:07:36;14.43;;;6.95;;
51828;SDS011;37881;48.024;8.774;2023-11-18T14:10:05;12.38;;;6.35;;
51828;SDS011;37881;48.024;8.774;2023-11-18T14:12:34;13.98;;;6.18;;
51828;SDS011;37881;48.024;8.774;2023-11-18T14:15:01;12.10;;;6.27;;
51828;SDS011;37881;48.024;8.774;2023-11-18T14:17:30;11.52;;;6.20;;
51828;SDS011;37881;48.024;8.774;2023-11-18T14:19:57;11.70;;;6.05;;
51828;SDS011;37881;48.024;8.774;2023-11-18T14:22:24;10.70;;;5.32;;
51828;SDS011;37881;48.024;8.774;2023-11-18T14:24:51;13.20;;;6.53;;
51828;SDS011;37881;48.024;8.774;2023-11-18T14:27:18;10.90;;;5.80;;
51828;SDS011;37881;48.024;8.774;2023-11-18T14:29:44;11.07;;;6.25;;
51828;SDS011;37881;48.024;8.774;2023-11-18T14:32:13;10.63;;;5.97;;
51828;SDS011;37881;48.024;8.774;2023-11-18T14:34:41;12.18;;;6.38;;
51828;SDS011;37881;48.024;8.774;2023-11-18T14:37:08;13.93;;;6.45;;
51828;SDS011;37881;48.024;8.774;2023-11-18T14:39:35;10.97;;;6.00;;
51828;SDS011;37881;48.024;8.774;2023-11-18T14:42:03;10.75;;;5.38;;
51828;SDS011;37881;48.024;8.774;2023-11-18T14:44:30;12.85;;;6.43;;
51828;SDS011;37881;48.024;8.774;2023-11-18T14:46:57;12.63;;;5.93;;
51828;SDS011;37881;48.024;8.774;2023-11-18T14:49:25;10.80;;;5.75;;
51828;SDS011;37881;48.024;8.774;2023-11-18T14:51:52;9.80;;;5.10;;
51828;SDS011;37881;48.024;8.774;2023-11-18T14:54:18;10.27;;;5.63;;
51828;SDS011;37881;48.024;8.774;2023-11-18T14:56:45;12.57;;;5.65;;
51828;SDS011;37881;48.024;8.774;2023-11-18T14:59:15;13.00;;;6.53;;
51828;SDS011;37881;48.024;8.774;2023-11-18T15:01:42;19.15;;;9.52;;
51828;SDS011;37881;48.024;8.774;2023-11-18T15:04:10;73.20;;;28.93;;
51828;SDS011;37881;48.024;8.774;2023-11-18T15:06:38;81.70;;;32.58;;
51828;SDS011;37881;48.024;8.774;2023-11-18T15:09:05;28.83;;;15.07;;
51828;SDS011;37881;48.024;8.774;2023-11-18T15:11:37;23.13;;;13.27;;
51828;SDS011;37881;48.024;8.774;2023-11-18T15:14:04;31.63;;;14.38;;
51828;SDS011;37881;48.024;8.774;2023-11-18T15:16:31;37.90;;;15.93;;
51828;SDS011;37881;48.024;8.774;2023-11-18T15:18:57;23.25;;;12.05;;
51828;SDS011;37881;48.024;8.774;2023-11-18T15:21:24;21.90;;;12.55;;
51828;SDS011;37881;48.024;8.774;2023-11-18T15:23:51;32.88;;;14.20;;
51828;SDS011;37881;48.024;8.774;2023-11-18T15:26:18;24.92;;;14.23;;
51828;SDS011;37881;48.024;8.774;2023-11-18T15:28:45;15.33;;;8.63;;